עמוד ראשי
METAR-TAF:

METAR-TAF

שדות תעופה :

קאהולואי, הוואי, ארצות הברית

קו רוחב: 20-53-33N, קו אורך: 156-26-13W, גובה: 16מטר

תצפית מזג אוויר נוכחית

הדו"ח נערך לפני 37דקות, בשעה 22:54 UTC
רוח 16קשר מכיוון מזרח/צפון-מזרח עם משבים עד 27קשר
טמפרטורת 30 צלסיוס
לחות 52%
לחץ 1015 hPa
ראות: 16.1קילומטר
עננים פזורים בגובה 5500רגל

METAR: PHOG 262254Z 06016G27KT 10SM SCT055 30/19 A2998 RMK AO2 PK WND 05031/2223 SLP158 T03000189

זמן: 13:31 (23:31 UTC)

תחזית

הדו"ח נערך לפני 5 שעות ו 56דקות, בשעה 17:35 UTC
תחזית בתוקף מ 26 ב 18 UTC עד 27 ב 18 UTC
רוח 14קשר מכיוון צפון-מזרח עם משבים עד 24קשר
ראות: 10קילומטר
מעט עננים בגובה 3500רגל
עננים פזורים בגובה 5000רגל
מ 26 ב 2000UTC
רוח 18קשר מכיוון צפון-מזרח עם משבים עד 30קשר
ראות: 10קילומטר
מעט עננים בגובה 3000רגל
עננים פזורים בגובה 5000רגל
מ 27 ב 0800UTC
רוח 7קשר מכיוון מזרח/צפון-מזרח
ראות: 10קילומטר
מעט עננים בגובה 3000רגל
עננים בינוניים בגובה 5000רגל

TAF: PHOG 261735Z 2618/2718 05014G24KT P6SM FEW035 SCT050 FM262000 05018G30KT P6SM FEW030 SCT050 FM270800 07007KT P6SM FEW030 BKN050

תצפיות ותחזיות מזג אוויר לגבי יותר מ- 4,000 שדות תעופה ברחבי העולם. דוחות METAR ו- TAF.

התחנות הזמינות מסומנות בנקודות צהובות ואדומות על גבי המפה.

העבר את העכבר לנקודה הצבעונית על מנת לראות את שם התחנה.

לאחר מכן, לחץ כדי לראות את תוכן ואת תחזיות מזג האוויר.

כדי לשנות את המפה: לחץ על הכפתורים הירוקים עם הפלוס השחור כדי להתקרב; על הכפתור הירוק עם המקף כדי להתרחק; או בחיצים הירוקים למפות סמוכות.


METAR-TAF: